Time;durP1;ratioP1;P1;durP2;ratioP2;P2;SDS_P1;SDS_P2;PMS_P1;PMS_P2;Temp;Humidity;BMP_temperature;BMP_pressure;BME280_temperature;BME280_humidity;BME280_pressure;Samples;Min_cycle;Max_cycle;Signal;HPM_P1;HPM_P2
2021/10/05 04:05:52;;;;;;;32.03;20.67;;;12.40;99.90;;;;;;4908005;29;20931;-84
2021/10/05 04:08:28;;;;;;;35.23;21.53;;;12.50;99.90;;;;;;4932469;29;20467;-84
2021/10/05 04:13:45;;;;;;;29.90;20.97;;;12.50;99.90;;;;;;4789676;30;20536;-85
2021/10/05 04:16:13;;;;;;;34.87;21.73;;;12.40;99.90;;;;;;4827272;29;21031;-84
2021/10/05 04:18:40;;;;;;;38.20;25.10;;;12.20;99.90;;;;;;4928370;29;20523;-84
2021/10/05 04:21:10;;;;;;;38.73;22.30;;;12.10;99.90;;;;;;4951043;29;20467;-84
2021/10/05 04:23:37;;;;;;;33.03;22.13;;;12.20;99.90;;;;;;4940463;29;20517;-82
2021/10/05 04:26:13;;;;;;;31.93;20.50;;;12.30;99.90;;;;;;4955210;28;20487;-84
2021/10/05 04:31:45;;;;;;;40.47;20.80;;;12.40;99.90;;;;;;4940680;29;20510;-84
2021/10/05 04:34:12;;;;;;;29.30;19.03;;;12.40;99.90;;;;;;4939794;29;20971;-84
2021/10/05 04:36:40;;;;;;;31.63;20.40;;;12.40;99.90;;;;;;4939552;29;20465;-85
2021/10/05 04:39:07;;;;;;;36.70;22.03;;;12.40;99.90;;;;;;4949188;28;20468;-82
2021/10/05 04:41:34;;;;;;;30.57;21.87;;;12.20;99.90;;;;;;4961552;28;20460;-82
2021/10/05 04:44:00;;;;;;;29.50;21.07;;;12.20;99.90;;;;;;4962042;29;20482;-85
2021/10/05 04:46:27;;;;;;;34.67;20.77;;;12.30;99.90;;;;;;4941288;29;20461;-86
2021/10/05 04:48:54;;;;;;;30.13;19.50;;;12.40;99.90;;;;;;4942376;29;20460;-84
2021/10/05 04:51:21;;;;;;;36.07;20.30;;;12.20;99.90;;;;;;4958530;29;20487;-84
2021/10/05 04:53:49;;;;;;;29.97;20.33;;;12.30;99.90;;;;;;4943515;28;20492;-84
2021/10/05 04:56:15;;;;;;;30.93;19.37;;;12.30;99.90;;;;;;4956573;29;20469;-84
2021/10/05 04:58:42;;;;;;;37.43;20.03;;;12.30;99.90;;;;;;4950173;29;20461;-84
2021/10/05 05:01:09;;;;;;;32.07;19.23;;;12.30;99.90;;;;;;4951954;29;20464;-83
2021/10/05 05:03:36;;;;;;;27.73;18.43;;;12.30;99.90;;;;;;4962607;28;20472;-84
2021/10/05 05:06:02;;;;;;;29.47;18.27;;;12.40;99.90;;;;;;4948818;28;20458;-83
2021/10/05 05:08:29;;;;;;;27.17;19.03;;;12.50;99.90;;;;;;4942109;29;20475;-84
2021/10/05 05:10:57;;;;;;;29.77;19.37;;;12.40;99.90;;;;;;4946833;29;20463;-85
2021/10/05 05:13:24;;;;;;;33.30;19.53;;;12.30;99.90;;;;;;4960709;28;20475;-85
2021/10/05 05:15:51;;;;;;;28.40;18.40;;;12.30;99.90;;;;;;4955347;28;20452;-85
2021/10/05 05:18:17;;;;;;;26.43;19.17;;;12.40;99.90;;;;;;4960303;29;20544;-85
2021/10/05 05:20:44;;;;;;;29.07;18.90;;;12.50;99.90;;;;;;4947442;29;20452;-85
2021/10/05 05:23:11;;;;;;;23.70;17.83;;;12.60;99.90;;;;;;4960188;29;20488;-86
2021/10/05 05:25:38;;;;;;;23.47;16.00;;;12.60;99.90;;;;;;4954990;29;20455;-85
2021/10/05 05:28:08;;;;;;;25.73;16.60;;;12.70;99.90;;;;;;4958730;29;20474;-84
2021/10/05 05:30:35;;;;;;;20.10;14.77;;;12.70;99.90;;;;;;4950944;28;20554;-85
2021/10/05 05:33:01;;;;;;;21.60;16.77;;;12.80;99.90;;;;;;4954206;28;20495;-85
2021/10/05 05:35:29;;;;;;;25.10;16.60;;;12.70;99.90;;;;;;4958732;28;20833;-85
2021/10/05 05:37:55;;;;;;;24.90;16.97;;;12.70;99.90;;;;;;4955110;29;20552;-85
2021/10/05 05:40:22;;;;;;;29.10;18.00;;;12.70;99.90;;;;;;4939766;29;20467;-85
2021/10/05 05:42:49;;;;;;;25.53;15.53;;;12.70;99.90;;;;;;4939728;29;20469;-85
2021/10/05 05:45:17;;;;;;;23.97;15.80;;;12.80;99.90;;;;;;4939795;29;20456;-85
2021/10/05 05:47:44;;;;;;;25.00;15.63;;;12.80;99.90;;;;;;4947786;29;20471;-85
2021/10/05 05:50:11;;;;;;;31.43;16.20;;;12.50;99.90;;;;;;4949976;29;20468;-84
2021/10/05 05:52:37;;;;;;;25.33;18.57;;;12.30;99.90;;;;;;4950198;28;20503;-84
2021/10/05 05:55:08;;;;;;;30.10;19.30;;;12.30;99.90;;;;;;4950897;28;20456;-84
2021/10/05 05:57:35;;;;;;;27.60;19.20;;;12.20;99.90;;;;;;4954482;29;20509;-84
2021/10/05 06:00:02;;;;;;;30.10;20.20;;;12.30;99.90;;;;;;4945666;28;20457;-85
2021/10/05 06:02:30;;;;;;;27.43;17.10;;;12.50;99.90;;;;;;4946760;29;20978;-85
2021/10/05 06:04:57;;;;;;;22.70;15.83;;;12.60;99.90;;;;;;4947901;29;20465;-85
2021/10/05 06:07:24;;;;;;;26.47;19.27;;;12.60;99.90;;;;;;4945542;29;20470;-85
2021/10/05 06:09:51;;;;;;;29.60;18.77;;;12.60;99.90;;;;;;4946701;29;20454;-85
2021/10/05 06:12:20;;;;;;;27.90;17.20;;;12.70;99.90;;;;;;4946907;29;20565;-85
2021/10/05 06:14:47;;;;;;;19.87;15.40;;;12.70;99.90;;;;;;4947606;29;20459;-85
2021/10/05 06:17:13;;;;;;;26.47;17.07;;;12.80;99.90;;;;;;4945318;29;20453;-85
2021/10/05 06:19:41;;;;;;;25.47;17.40;;;12.90;99.90;;;;;;4947469;29;20487;-85
2021/10/05 06:22:08;;;;;;;23.07;16.27;;;13.00;99.90;;;;;;4945092;29;20465;-84
2021/10/05 06:24:35;;;;;;;25.00;15.90;;;13.10;99.90;;;;;;4946644;29;20457;-85
2021/10/05 06:27:02;;;;;;;19.97;14.70;;;13.20;99.90;;;;;;4946702;29;20811;-82
2021/10/05 06:29:29;;;;;;;26.17;18.00;;;13.20;99.90;;;;;;4949203;29;20508;-84
2021/10/05 06:31:56;;;;;;;22.30;15.30;;;13.20;99.90;;;;;;4955865;28;20486;-84
2021/10/05 06:34:22;;;;;;;20.43;14.80;;;13.30;99.90;;;;;;4956445;29;20985;-84
2021/10/05 06:36:50;;;;;;;19.80;14.87;;;13.30;99.90;;;;;;4955512;29;20449;-85
2021/10/05 07:00:13;;;;;;;16.27;11.10;;;13.40;99.90;;;;;;5032373;23;20553;-83
2021/10/05 07:03:08;;;;;;;13.77;10.70;;;13.50;99.90;;;;;;4996218;28;20827;-84
2021/10/05 07:05:37;;;;;;;14.40;10.87;;;13.50;99.90;;;;;;4995725;28;20459;-83
2021/10/05 07:08:15;;;;;;;11.93;10.73;;;13.60;99.90;;;;;;4996295;28;20451;-82
2021/10/05 07:11:19;;;;;;;;;;;;;;;;;;;;;
2021/10/05 07:14:14;;;;;;;13.13;11.80;;;13.70;99.90;;;;;;4996880;28;20521;-83
2021/10/05 07:17:01;;;;;;;18.23;12.07;;;13.80;99.90;;;;;;4997973;28;20478;-83
2021/10/05 07:19:27;;;;;;;14.10;11.67;;;13.80;99.90;;;;;;4994311;28;20829;-83
2021/10/05 07:21:54;;;;;;;12.67;9.80;;;13.90;99.90;;;;;;5010467;28;20455;-82
2021/10/05 07:24:21;;;;;;;11.80;9.43;;;13.90;99.90;;;;;;5006438;28;20459;-82
2021/10/05 07:26:59;;;;;;;12.47;7.97;;;13.70;99.90;;;;;;4993910;28;20447;-82
2021/10/05 07:32:19;;;;;;;14.30;9.87;;;13.90;99.90;;;;;;4985536;28;20482;-83
2021/10/05 07:40:55;;;;;;;12.13;10.93;;;14.10;99.90;;;;;;4997671;28;20816;-83
2021/10/05 07:43:40;;;;;;;10.30;9.30;;;13.90;99.90;;;;;;5002379;28;20449;-82
2021/10/05 07:49:54;;;;;;;11.40;9.50;;;13.60;99.90;;;;;;4957659;28;21029;-83
2021/10/05 07:56:23;;;;;;;;;;;;;;;;;;;;;
2021/10/05 07:58:50;;;;;;;11.90;9.03;;;13.80;99.90;;;;;;5006109;28;20543;-83
2021/10/05 08:01:17;;;;;;;8.67;7.50;;;13.70;99.90;;;;;;5019883;28;20963;-82
2021/10/05 08:03:43;;;;;;;9.47;7.73;;;13.60;99.90;;;;;;5014304;28;20969;-81
2021/10/05 08:06:12;;;;;;;7.80;6.37;;;13.80;99.90;;;;;;4998689;28;20450;-83
2021/10/05 08:11:14;;;;;;;8.60;7.57;;;13.70;99.90;;;;;;1442582;26;20554;-82
2021/10/05 08:13:40;;;;;;;8.47;6.97;;;13.50;99.90;;;;;;5018977;28;20520;-82
2021/10/05 08:16:07;;;;;;;7.77;7.07;;;13.70;99.90;;;;;;5019059;28;20465;-82
2021/10/05 08:18:34;;;;;;;7.57;6.50;;;13.90;99.90;;;;;;5017224;28;20450;-81
2021/10/05 08:21:01;;;;;;;7.20;5.60;;;14.00;99.90;;;;;;4979365;28;20474;-80
2021/10/05 08:23:29;;;;;;;6.53;5.50;;;14.10;99.90;;;;;;4982609;28;20452;-81
2021/10/05 08:25:55;;;;;;;6.63;6.03;;;14.10;99.90;;;;;;5002807;28;20457;-82
2021/10/05 08:28:22;;;;;;;6.83;6.13;;;14.10;99.90;;;;;;5003042;28;20458;-81
2021/10/05 08:30:49;;;;;;;6.70;5.77;;;14.10;99.90;;;;;;4984124;28;20904;-80
2021/10/05 08:33:16;;;;;;;6.97;6.27;;;14.20;99.90;;;;;;4984650;28;20499;-81
2021/10/05 08:35:43;;;;;;;6.13;5.63;;;14.30;99.90;;;;;;5003339;28;20475;-79
2021/10/05 08:38:09;;;;;;;6.80;5.60;;;14.30;99.90;;;;;;4989006;28;20466;-83
2021/10/05 08:40:38;;;;;;;6.60;6.00;;;14.40;99.90;;;;;;5002416;28;20474;-79
2021/10/05 08:43:05;;;;;;;6.27;5.70;;;14.40;99.90;;;;;;5004114;28;20439;-80
2021/10/05 08:45:31;;;;;;;4.10;3.80;;;14.40;99.90;;;;;;4984947;28;20463;-81
2021/10/05 08:47:58;;;;;;;5.57;5.03;;;14.30;99.90;;;;;;4984476;28;20475;-80
2021/10/05 08:50:26;;;;;;;5.50;5.00;;;14.30;99.90;;;;;;5002393;28;20478;-79
2021/10/05 08:53:03;;;;;;;3.10;2.90;;;14.40;99.90;;;;;;5007240;28;20490;-83
2021/10/05 08:55:30;;;;;;;3.67;3.43;;;14.50;99.90;;;;;;4988321;28;20848;-80
2021/10/05 08:57:58;;;;;;;3.70;3.07;;;14.40;99.90;;;;;;4987532;28;20464;-80
2021/10/05 09:00:32;;;;;;;3.97;3.67;;;14.40;99.90;;;;;;5002028;28;20840;-81
2021/10/05 09:02:59;;;;;;;3.93;3.63;;;14.40;99.90;;;;;;4998383;28;20454;-81
2021/10/05 09:05:27;;;;;;;4.07;3.70;;;14.40;99.90;;;;;;4983104;28;20448;-81
2021/10/05 09:07:56;;;;;;;6.23;3.97;;;14.20;99.90;;;;;;4981807;28;20459;-81
2021/10/05 09:10:25;;;;;;;6.10;3.80;;;14.30;99.90;;;;;;5000475;28;20483;-81
2021/10/05 09:12:52;;;;;;;5.43;4.57;;;14.40;99.90;;;;;;5001035;28;20491;-80
2021/10/05 09:15:21;;;;;;;4.10;3.80;;;14.30;99.90;;;;;;4983343;28;20460;-80
2021/10/05 09:17:54;;;;;;;5.33;4.80;;;14.30;99.90;;;;;;4980109;28;20445;-81
2021/10/05 09:20:24;;;;;;;5.93;5.43;;;14.10;99.90;;;;;;4980542;28;20479;-81
2021/10/05 09:23:14;;;;;;;5.80;5.20;;;14.00;99.90;;;;;;4979152;28;20452;-85
2021/10/05 09:25:43;;;;;;;6.30;5.03;;;14.10;99.90;;;;;;4979547;28;20460;-81
2021/10/05 09:28:25;;;;;;;7.10;4.93;;;14.20;99.90;;;;;;4979939;28;20933;-84
2021/10/05 09:31:02;;;;;;;6.90;5.70;;;14.40;99.90;;;;;;4978618;28;20459;-79
2021/10/05 09:33:30;;;;;;;5.80;5.20;;;14.60;99.90;;;;;;4987608;28;20489;-82
2021/10/05 09:35:56;;;;;;;6.80;5.80;;;14.70;99.90;;;;;;5002243;28;20455;-82
2021/10/05 09:38:25;;;;;;;7.90;6.40;;;14.80;99.90;;;;;;4993750;28;20463;-81
2021/10/05 09:41:10;;;;;;;7.83;6.50;;;14.90;99.90;;;;;;4979225;28;20961;-84
2021/10/05 09:43:37;;;;;;;8.23;6.53;;;14.90;99.90;;;;;;4990301;28;20463;-81
2021/10/05 09:46:12;;;;;;;6.40;5.90;;;14.90;99.90;;;;;;4998031;28;20511;-81
2021/10/05 09:48:39;;;;;;;6.40;5.50;;;14.80;99.90;;;;;;4978792;28;20455;-81
2021/10/05 09:51:19;;;;;;;5.63;5.13;;;14.80;99.90;;;;;;4977988;28;20936;-81
2021/10/05 09:53:46;;;;;;;5.83;5.27;;;15.00;99.90;;;;;;4990866;28;20984;-80
2021/10/05 09:56:13;;;;;;;6.20;5.63;;;15.20;99.90;;;;;;4997098;28;20976;-81
2021/10/05 09:58:40;;;;;;;6.73;6.07;;;15.40;99.90;;;;;;4978215;28;20455;-81
2021/10/05 10:02:00;;;;;;;6.87;6.13;;;15.50;99.90;;;;;;4990334;28;20935;-85
2021/10/05 10:04:31;;;;;;;5.37;4.37;;;15.70;99.90;;;;;;4995024;28;20463;-85
2021/10/05 10:07:00;;;;;;;5.97;5.37;;;15.80;99.90;;;;;;4977586;28;20942;-82
2021/10/05 10:09:26;;;;;;;4.83;4.33;;;15.80;99.90;;;;;;4992484;28;20484;-81
2021/10/05 10:11:54;;;;;;;2.93;2.73;;;15.80;99.90;;;;;;4988545;28;20467;-81
2021/10/05 10:14:21;;;;;;;3.90;3.23;;;15.60;99.90;;;;;;4986669;28;21047;-80
2021/10/05 10:16:51;;;;;;;3.70;3.40;;;15.60;99.90;;;;;;4996070;28;20459;-80
2021/10/05 10:19:29;;;;;;;3.50;3.20;;;15.50;99.90;;;;;;4996663;28;20476;-80
2021/10/05 10:22:07;;;;;;;3.80;3.27;;;15.20;99.90;;;;;;4994366;28;20546;-80
2021/10/05 10:24:45;;;;;;;3.13;2.90;;;15.30;99.90;;;;;;4995830;28;20450;-80
2021/10/05 10:27:12;;;;;;;4.40;3.63;;;15.40;99.90;;;;;;4984183;28;20959;-80
2021/10/05 10:29:40;;;;;;;3.93;3.53;;;15.50;99.90;;;;;;4976890;28;20476;-81
2021/10/05 10:32:15;;;;;;;3.23;3.03;;;15.60;99.90;;;;;;4987053;28;20455;-80
2021/10/05 10:34:44;;;;;;;4.23;3.93;;;15.70;99.90;;;;;;4990053;28;20449;-81
2021/10/05 10:37:15;;;;;;;3.10;2.80;;;15.90;99.90;;;;;;4986068;28;20542;-81
2021/10/05 10:39:43;;;;;;;3.87;3.57;;;15.90;99.90;;;;;;4976816;28;20472;-81
2021/10/05 10:42:10;;;;;;;4.07;3.70;;;15.70;99.90;;;;;;4989243;28;20825;-81
2021/10/05 10:44:40;;;;;;;3.53;3.27;;;15.80;99.90;;;;;;4978307;28;20455;-81
2021/10/05 10:47:09;;;;;;;2.80;2.60;;;15.90;99.90;;;;;;4997058;28;20451;-80
2021/10/05 10:49:36;;;;;;;2.60;2.40;;;15.90;99.90;;;;;;4995543;28;20474;-80
2021/10/05 10:52:04;;;;;;;3.57;2.90;;;15.70;99.90;;;;;;4995545;28;20447;-81
2021/10/05 10:54:32;;;;;;;3.10;2.00;;;15.70;99.90;;;;;;4990569;28;20484;-81
2021/10/05 10:57:01;;;;;;;2.37;2.10;;;15.70;99.90;;;;;;4975289;28;20456;-80
2021/10/05 10:59:29;;;;;;;2.60;2.40;;;15.80;99.90;;;;;;4980355;28;21043;-80
2021/10/05 11:02:01;;;;;;;2.00;1.80;;;15.80;99.90;;;;;;4995053;28;20451;-82
2021/10/05 11:04:27;;;;;;;2.30;2.10;;;15.90;99.90;;;;;;4981182;28;20449;-80
2021/10/05 11:06:57;;;;;;;2.00;1.90;;;15.90;99.90;;;;;;4975950;28;20456;-80
2021/10/05 11:09:29;;;;;;;2.50;2.10;;;15.90;99.90;;;;;;4987615;28;20473;-80
2021/10/05 11:11:59;;;;;;;2.57;2.47;;;16.00;99.90;;;;;;4974727;28;20465;-80
2021/10/05 11:14:28;;;;;;;2.80;2.60;;;15.80;99.90;;;;;;4991142;28;20850;-80
2021/10/05 11:16:57;;;;;;;1.93;1.83;;;15.70;99.90;;;;;;4989718;28;20451;-79
2021/10/05 11:19:28;;;;;;;1.87;1.77;;;15.70;99.90;;;;;;4983861;28;20483;-80
2021/10/05 11:21:55;;;;;;;2.47;2.37;;;15.60;99.90;;;;;;4989613;28;20526;-83
2021/10/05 11:24:22;;;;;;;2.10;2.00;;;15.40;99.90;;;;;;4980225;28;20460;-81
2021/10/05 11:26:52;;;;;;;1.90;1.80;;;15.20;99.90;;;;;;4990616;28;20446;-81
2021/10/05 11:29:27;;;;;;;1.50;1.40;;;15.20;99.90;;;;;;4989656;28;20464;-83
2021/10/05 11:31:56;;;;;;;1.87;1.70;;;15.30;99.90;;;;;;4988324;28;20459;-82
2021/10/05 11:34:23;;;;;;;2.73;2.00;;;15.40;99.90;;;;;;4984941;28;20483;-82
2021/10/05 11:36:51;;;;;;;1.37;1.33;;;15.50;99.90;;;;;;4997638;28;20451;-81
2021/10/05 11:39:24;;;;;;;1.70;1.60;;;15.70;99.90;;;;;;4987338;28;20478;-82
2021/10/05 11:41:53;;;;;;;1.83;1.73;;;16.00;99.90;;;;;;4978363;28;20466;-82
2021/10/05 11:44:22;;;;;;;1.73;1.63;;;16.00;99.90;;;;;;4987260;28;20994;-82
2021/10/05 11:46:59;;;;;;;1.67;1.57;;;16.10;99.90;;;;;;4998597;28;20448;-82
2021/10/05 11:49:27;;;;;;;1.83;1.70;;;16.20;99.90;;;;;;4996855;28;20487;-81
2021/10/05 11:51:57;;;;;;;1.50;1.40;;;16.30;99.90;;;;;;4998452;28;20456;-82
2021/10/05 11:54:26;;;;;;;1.67;1.57;;;16.40;99.90;;;;;;4987306;28;20487;-81
2021/10/05 11:56:55;;;;;;;1.60;1.23;;;16.30;99.90;;;;;;4987472;28;20444;-82
2021/10/05 11:59:24;;;;;;;1.80;1.70;;;16.30;99.90;;;;;;4996854;28;21002;-81
2021/10/05 12:01:56;;;;;;;1.30;1.30;;;16.40;99.90;;;;;;4983670;28;20461;-81
2021/10/05 12:04:25;;;;;;;1.50;1.40;;;16.20;99.90;;;;;;4979637;28;20471;-81
2021/10/05 12:06:54;;;;;;;1.63;1.53;;;16.30;99.90;;;;;;4980841;28;20456;-82
2021/10/05 12:09:26;;;;;;;1.30;1.20;;;16.10;99.90;;;;;;4979820;28;20476;-81
2021/10/05 12:11:57;;;;;;;1.33;1.23;;;16.30;99.90;;;;;;4981333;28;20496;-82
2021/10/05 12:14:29;;;;;;;1.17;1.17;;;16.50;99.90;;;;;;4981958;28;20493;-82
2021/10/05 12:16:58;;;;;;;0.80;0.80;;;16.70;99.90;;;;;;5001070;28;20452;-81
2021/10/05 12:19:28;;;;;;;2.33;1.13;;;16.60;99.90;;;;;;4984535;28;20479;-82
2021/10/05 12:21:57;;;;;;;1.57;1.47;;;16.50;99.90;;;;;;5001500;28;20451;-83
2021/10/05 12:24:38;;;;;;;0.97;0.83;;;16.60;99.90;;;;;;4997912;28;20456;-81
2021/10/05 12:27:06;;;;;;;1.30;1.20;;;16.70;99.90;;;;;;5008423;28;20453;-82
2021/10/05 12:29:33;;;;;;;1.00;1.00;;;16.90;99.90;;;;;;4989002;28;20480;-82
2021/10/05 12:32:03;;;;;;;4.03;1.20;;;17.10;99.90;;;;;;4981974;28;20864;-83
2021/10/05 12:34:39;;;;;;;1.80;1.70;;;16.90;99.90;;;;;;4981587;28;20489;-81
2021/10/05 12:37:07;;;;;;;1.63;1.43;;;16.90;99.90;;;;;;4981400;28;20452;-80
2021/10/05 12:39:34;;;;;;;1.13;1.10;;;17.00;99.90;;;;;;4984617;28;20484;-81
2021/10/05 12:42:03;;;;;;;1.27;1.17;;;16.90;99.90;;;;;;4985401;28;20811;-82
2021/10/05 12:44:32;;;;;;;1.33;1.23;;;17.10;99.90;;;;;;4993316;28;20456;-83
2021/10/05 12:47:01;;;;;;;1.90;1.80;;;17.00;99.90;;;;;;5001387;28;20541;-81
2021/10/05 12:49:28;;;;;;;1.27;0.97;;;17.00;99.90;;;;;;4999909;28;20829;-82
2021/10/05 12:51:57;;;;;;;1.07;0.90;;;17.20;99.90;;;;;;4998858;28;20492;-81
2021/10/05 12:54:24;;;;;;;1.00;1.00;;;17.30;99.90;;;;;;5000162;28;20484;-81
2021/10/05 12:56:52;;;;;;;0.83;0.83;;;17.10;99.90;;;;;;4990529;28;20456;-81
2021/10/05 12:59:19;;;;;;;0.90;0.90;;;17.20;99.90;;;;;;4998780;28;20476;-82
2021/10/05 13:01:46;;;;;;;0.80;0.80;;;17.30;99.90;;;;;;4997410;28;20463;-81
2021/10/05 13:04:15;;;;;;;1.00;1.00;;;17.60;99.90;;;;;;4998501;28;20642;-80
2021/10/05 13:06:42;;;;;;;1.20;1.07;;;17.70;99.90;;;;;;4982874;28;20975;-80
2021/10/05 13:09:11;;;;;;;1.10;1.00;;;17.80;99.90;;;;;;4978886;28;20477;-81
2021/10/05 13:11:39;;;;;;;0.80;0.80;;;18.10;99.90;;;;;;4992714;28;20502;-82
2021/10/05 13:14:06;;;;;;;0.83;0.83;;;18.50;99.90;;;;;;4997487;28;20857;-81
2021/10/05 13:16:33;;;;;;;0.60;0.60;;;18.60;99.90;;;;;;4982709;28;20462;-81
2021/10/05 13:19:00;;;;;;;1.47;0.90;;;19.00;99.90;;;;;;4994301;28;20477;-81
2021/10/05 13:21:27;;;;;;;0.93;0.70;;;19.80;99.90;;;;;;4986403;28;20459;-81
2021/10/05 13:23:54;;;;;;;0.70;0.70;;;20.20;99.90;;;;;;4980565;28;20460;-82
2021/10/05 13:26:27;;;;;;;1.27;0.73;;;20.30;99.90;;;;;;4988512;28;20475;-84
2021/10/05 13:28:56;;;;;;;0.70;0.60;;;20.80;99.90;;;;;;4986709;28;20491;-81
2021/10/05 13:34:11;;;;;;;0.67;0.67;;;21.60;98.80;;;;;;4998287;28;20528;-82
2021/10/05 13:36:38;;;;;;;0.67;0.67;;;22.00;98.70;;;;;;4985877;28;20461;-81
2021/10/05 13:39:05;;;;;;;1.00;0.90;;;22.00;97.00;;;;;;4977801;28;20834;-83
2021/10/05 13:41:33;;;;;;;0.70;0.70;;;22.20;97.30;;;;;;4988563;28;20981;-81
2021/10/05 13:44:00;;;;;;;0.80;0.80;;;22.10;96.50;;;;;;4997936;28;20454;-81
2021/10/05 13:46:27;;;;;;;0.60;0.60;;;22.10;98.00;;;;;;4983967;28;20877;-81
2021/10/05 13:48:54;;;;;;;0.67;0.67;;;21.80;95.90;;;;;;4978275;28;20468;-81
2021/10/05 13:51:20;;;;;;;1.27;0.73;;;21.50;96.40;;;;;;4981306;28;20457;-81
2021/10/05 13:53:47;;;;;;;1.03;0.93;;;20.90;96.60;;;;;;4978723;28;20487;-80
2021/10/05 13:56:35;;;;;;;0.90;0.90;;;20.20;97.40;;;;;;4993434;28;20526;-84
2021/10/05 13:59:03;;;;;;;1.20;1.00;;;19.50;98.70;;;;;;4996930;28;20470;-80
2021/10/05 14:01:30;;;;;;;1.10;1.00;;;19.30;99.40;;;;;;4980345;28;20878;-80
2021/10/05 14:03:56;;;;;;;0.70;0.70;;;19.40;99.80;;;;;;4976999;28;20451;-80
2021/10/05 14:06:23;;;;;;;0.70;0.70;;;19.50;99.90;;;;;;4992082;28;20461;-81
2021/10/05 14:08:50;;;;;;;1.13;0.80;;;19.30;99.50;;;;;;4997310;28;20488;-80
2021/10/05 14:11:16;;;;;;;0.60;0.50;;;19.20;99.70;;;;;;4983528;28;20865;-80
2021/10/05 14:13:45;;;;;;;0.60;0.60;;;19.00;99.90;;;;;;4977590;28;21331;-80
2021/10/05 14:16:11;;;;;;;1.43;0.80;;;19.00;99.90;;;;;;4978623;28;20455;-82
2021/10/05 14:18:45;;;;;;;0.60;0.60;;;19.10;99.90;;;;;;4979000;28;20463;-84
2021/10/05 14:21:16;;;;;;;1.73;0.70;;;18.90;99.60;;;;;;4990207;28;20458;-79
2021/10/05 14:23:45;;;;;;;0.70;0.60;;;19.00;99.90;;;;;;4997358;28;20541;-80
2021/10/05 14:26:12;;;;;;;0.70;0.70;;;19.00;99.90;;;;;;4985240;28;20466;-80
2021/10/05 14:28:38;;;;;;;0.63;0.63;;;19.00;99.90;;;;;;4976811;28;20481;-80
2021/10/05 14:31:12;;;;;;;0.80;0.47;;;19.00;99.90;;;;;;4987951;28;20457;-83
2021/10/05 14:33:40;;;;;;;1.77;0.57;;;18.90;99.90;;;;;;4991248;28;20485;-81
2021/10/05 14:36:24;;;;;;;0.50;0.50;;;18.90;99.90;;;;;;4992820;28;20458;-85
2021/10/05 14:38:50;;;;;;;0.70;0.70;;;18.50;99.90;;;;;;4997539;28;20472;-81
2021/10/05 14:41:17;;;;;;;0.83;0.80;;;18.50;99.90;;;;;;4998800;28;20453;-81
2021/10/05 14:43:44;;;;;;;0.80;0.80;;;18.50;99.90;;;;;;4987681;28;20960;-80
2021/10/05 14:50:18;;;;;;;2.40;0.93;;;18.30;99.90;;;;;;4977862;28;20494;-84
2021/10/05 14:53:05;;;;;;;0.73;0.70;;;18.50;99.90;;;;;;4995816;28;20453;-84
2021/10/05 14:55:41;;;;;;;0.50;0.50;;;18.40;99.90;;;;;;4990515;28;20506;-83
2021/10/05 14:58:08;;;;;;;4.00;0.90;;;18.20;99.90;;;;;;4985352;28;20521;-80
2021/10/05 15:00:34;;;;;;;0.90;0.90;;;18.10;99.90;;;;;;4991024;28;20484;-80
2021/10/05 15:03:01;;;;;;;0.73;0.73;;;18.10;99.90;;;;;;4990245;28;20461;-80
2021/10/05 15:05:28;;;;;;;0.80;0.80;;;17.90;99.90;;;;;;4993588;28;20470;-80
2021/10/05 15:07:56;;;;;;;0.60;0.50;;;17.90;99.90;;;;;;4999096;28;20453;-80
2021/10/05 15:10:23;;;;;;;0.80;0.80;;;17.60;99.90;;;;;;4999061;28;20475;-80
2021/10/05 15:12:50;;;;;;;1.27;1.17;;;17.30;99.90;;;;;;4999405;28;20464;-80
2021/10/05 15:15:17;;;;;;;0.90;0.90;;;16.90;99.90;;;;;;4998528;28;20492;-80
2021/10/05 15:17:44;;;;;;;0.83;0.60;;;17.00;99.90;;;;;;4999335;28;20460;-80
2021/10/05 15:20:13;;;;;;;1.33;0.97;;;17.00;99.90;;;;;;4999583;28;20483;-80
2021/10/05 15:22:42;;;;;;;1.27;0.70;;;16.90;99.90;;;;;;4998771;28;20450;-80
2021/10/05 15:25:11;;;;;;;1.90;0.90;;;16.90;99.90;;;;;;4999094;28;20527;-80
2021/10/05 15:27:37;;;;;;;0.97;0.70;;;17.00;99.90;;;;;;4999791;28;20458;-80
2021/10/05 15:30:07;;;;;;;0.83;0.83;;;17.00;99.90;;;;;;4999681;28;20480;-80
2021/10/05 15:32:35;;;;;;;1.10;1.00;;;17.10;99.90;;;;;;4999693;28;20457;-80
2021/10/05 15:35:04;;;;;;;1.13;0.73;;;17.20;99.90;;;;;;4999420;28;20584;-80
2021/10/05 15:37:31;;;;;;;0.90;0.80;;;17.40;99.90;;;;;;4999621;28;20458;-80
2021/10/05 15:39:58;;;;;;;0.80;0.80;;;17.50;99.90;;;;;;4999020;28;20472;-80
2021/10/05 15:42:27;;;;;;;0.63;0.63;;;17.30;99.90;;;;;;4998730;28;20456;-80
2021/10/05 15:44:54;;;;;;;0.90;0.73;;;17.20;99.90;;;;;;4994586;28;20506;-80
2021/10/05 15:47:23;;;;;;;1.07;0.97;;;17.20;99.90;;;;;;4994170;28;20457;-79
2021/10/05 15:49:50;;;;;;;1.00;1.00;;;17.20;99.90;;;;;;4997455;28;21073;-80
2021/10/05 15:52:25;;;;;;;1.30;1.20;;;17.10;99.90;;;;;;4996629;28;20491;-80
2021/10/05 15:54:52;;;;;;;1.00;1.00;;;17.00;99.90;;;;;;5011400;23;20495;-83
2021/10/05 15:57:18;;;;;;;2.47;1.17;;;16.90;99.90;;;;;;4998770;28;20449;-84
2021/10/05 15:59:48;;;;;;;1.27;0.77;;;16.80;99.90;;;;;;4998067;28;20832;-86
2021/10/05 16:02:15;;;;;;;1.33;1.20;;;16.80;99.90;;;;;;4999373;28;20464;-84
2021/10/05 16:04:42;;;;;;;1.13;1.03;;;16.90;99.90;;;;;;4999965;28;20472;-83
2021/10/05 16:07:13;;;;;;;1.20;1.10;;;16.90;99.90;;;;;;4998000;28;20467;-85
2021/10/05 16:09:42;;;;;;;2.10;0.97;;;16.80;99.90;;;;;;4994358;28;20476;-85
2021/10/05 16:12:09;;;;;;;0.93;0.93;;;16.70;99.90;;;;;;4999747;28;20445;-85
2021/10/05 16:14:36;;;;;;;1.17;1.10;;;16.60;99.90;;;;;;4999967;28;20488;-82
2021/10/05 16:17:05;;;;;;;2.50;1.00;;;16.50;99.90;;;;;;4997935;28;20448;-83
2021/10/05 16:19:32;;;;;;;0.90;0.90;;;16.40;99.90;;;;;;4980074;28;20455;-85
2021/10/05 16:21:58;;;;;;;1.43;1.33;;;16.50;99.90;;;;;;4995863;28;20825;-83
2021/10/05 16:24:25;;;;;;;1.70;1.37;;;16.30;99.90;;;;;;4997157;28;20474;-82
2021/10/05 16:26:52;;;;;;;1.20;1.10;;;16.20;99.90;;;;;;4997187;28;20448;-82
2021/10/05 16:29:20;;;;;;;2.27;1.10;;;16.10;99.90;;;;;;4996383;28;20458;-83
2021/10/05 16:31:47;;;;;;;1.23;1.13;;;16.10;99.90;;;;;;4997301;28;20451;-82
2021/10/05 16:34:16;;;;;;;1.23;1.13;;;16.00;99.90;;;;;;4997109;28;20474;-83
2021/10/05 16:36:43;;;;;;;2.33;1.50;;;15.90;99.90;;;;;;4996212;28;20956;-83
2021/10/05 16:39:10;;;;;;;1.23;0.87;;;15.90;99.90;;;;;;4997261;28;20454;-82
2021/10/05 16:41:36;;;;;;;1.30;1.10;;;15.90;99.90;;;;;;4997607;28;20490;-83
2021/10/05 16:44:04;;;;;;;1.47;0.87;;;15.80;99.90;;;;;;4988277;28;20482;-81
2021/10/05 16:46:31;;;;;;;1.23;1.13;;;15.80;99.90;;;;;;4987715;28;20469;-82
2021/10/05 16:49:04;;;;;;;1.60;1.50;;;15.80;99.90;;;;;;4997254;28;20460;-84
2021/10/05 16:52:04;;;;;;;1.87;1.70;;;15.80;99.90;;;;;;4994350;28;20445;-84
2021/10/05 16:58:33;;;;;;;1.70;1.60;;;15.60;99.90;;;;;;4962360;28;20580;-84
2021/10/05 17:07:09;;;;;;;1.10;1.00;;;15.00;99.90;;;;;;4959972;29;20445;-81
2021/10/05 17:09:38;;;;;;;1.00;0.90;;;14.90;99.90;;;;;;4980954;28;20814;-82
2021/10/05 17:12:05;;;;;;;1.10;1.10;;;14.80;99.90;;;;;;5002310;28;20455;-82
2021/10/05 17:17:16;;;;;;;1.20;1.10;;;15.00;99.90;;;;;;4989222;28;20601;-84
2021/10/05 17:19:46;;;;;;;2.33;0.80;;;15.10;99.90;;;;;;4992764;28;20796;-85
2021/10/05 17:22:13;;;;;;;0.93;0.70;;;15.00;99.90;;;;;;4994931;28;20439;-84
2021/10/05 17:24:42;;;;;;;1.53;1.10;;;14.80;99.90;;;;;;4989029;28;20480;-83
2021/10/05 17:27:08;;;;;;;1.33;0.80;;;14.80;99.90;;;;;;4983656;28;20456;-83
2021/10/05 17:29:36;;;;;;;0.90;0.90;;;14.80;99.90;;;;;;4987391;28;20455;-82
2021/10/05 17:32:10;;;;;;;1.00;1.00;;;14.80;99.90;;;;;;4983935;28;20452;-84
2021/10/05 17:35:07;;;;;;;1.23;1.00;;;14.80;99.90;;;;;;4981326;28;20563;-83
2021/10/05 17:40:48;;;;;;;1.77;0.90;;;14.60;99.90;;;;;;4976898;28;20452;-83
2021/10/05 17:46:08;;;;;;;0.90;0.87;;;14.40;99.90;;;;;;4995488;28;20539;-84
2021/10/05 18:02:27;;;;;;;2.83;1.07;;;14.10;99.90;;;;;;4916848;29;20487;-83
2021/10/05 18:05:24;;;;;;;2.13;1.03;;;14.10;99.90;;;;;;4929378;29;20465;-83
2021/10/05 18:07:57;;;;;;;1.63;1.30;;;14.10;99.90;;;;;;4933753;29;20461;-83
2021/10/05 18:10:40;;;;;;;1.13;1.00;;;14.10;99.90;;;;;;4911580;29;20453;-83
2021/10/05 18:13:30;;;;;;;1.40;1.10;;;14.10;99.90;;;;;;4969963;28;20883;-83
2021/10/05 18:19:55;;;;;;;0.77;0.77;;;14.00;99.90;;;;;;4970971;28;20442;-82
2021/10/05 18:22:22;;;;;;;0.80;0.80;;;13.90;99.90;;;;;;4997983;28;20801;-82
2021/10/05 18:24:49;;;;;;;1.67;0.93;;;13.90;99.90;;;;;;5004956;28;20471;-81
2021/10/05 18:27:18;;;;;;;1.00;1.00;;;13.80;99.90;;;;;;5004537;28;20471;-81
2021/10/05 18:29:46;;;;;;;0.90;0.90;;;13.80;99.90;;;;;;4987765;28;20476;-81
2021/10/05 18:32:13;;;;;;;1.17;0.90;;;13.70;99.90;;;;;;4991498;28;20458;-80